sensor_id;sensor_type;location;lat;lon;timestamp;P1;durP1;ratioP1;P2;durP2;ratioP2
15899;SDS011;8048;50.644;6.184;2023-06-14T00:02:12;7.03;;;6.53;;
15899;SDS011;8048;50.644;6.184;2023-06-14T00:04:37;7.30;;;6.60;;
15899;SDS011;8048;50.644;6.184;2023-06-14T00:07:04;8.00;;;7.40;;
15899;SDS011;8048;50.644;6.184;2023-06-14T00:09:33;6.90;;;6.40;;
15899;SDS011;8048;50.644;6.184;2023-06-14T00:11:59;7.40;;;6.80;;
15899;SDS011;8048;50.644;6.184;2023-06-14T00:14:25;7.67;;;6.97;;
15899;SDS011;8048;50.644;6.184;2023-06-14T00:16:50;7.73;;;6.97;;
15899;SDS011;8048;50.644;6.184;2023-06-14T00:19:17;7.00;;;6.40;;
15899;SDS011;8048;50.644;6.184;2023-06-14T00:21:44;5.93;;;5.53;;
15899;SDS011;8048;50.644;6.184;2023-06-14T00:24:10;6.23;;;5.73;;
15899;SDS011;8048;50.644;6.184;2023-06-14T00:26:36;6.67;;;6.17;;
15899;SDS011;8048;50.644;6.184;2023-06-14T00:29:01;7.43;;;6.73;;
15899;SDS011;8048;50.644;6.184;2023-06-14T00:31:27;6.50;;;6.07;;
15899;SDS011;8048;50.644;6.184;2023-06-14T00:33:53;6.83;;;6.27;;
15899;SDS011;8048;50.644;6.184;2023-06-14T00:36:18;6.67;;;6.07;;
15899;SDS011;8048;50.644;6.184;2023-06-14T00:38:44;7.10;;;6.60;;
15899;SDS011;8048;50.644;6.184;2023-06-14T00:41:09;6.70;;;6.27;;
15899;SDS011;8048;50.644;6.184;2023-06-14T00:43:35;7.00;;;6.40;;
15899;SDS011;8048;50.644;6.184;2023-06-14T00:46:00;10.37;;;6.80;;
15899;SDS011;8048;50.644;6.184;2023-06-14T00:48:26;7.10;;;6.40;;
15899;SDS011;8048;50.644;6.184;2023-06-14T00:50:53;6.70;;;6.10;;
15899;SDS011;8048;50.644;6.184;2023-06-14T00:53:19;7.43;;;6.00;;
15899;SDS011;8048;50.644;6.184;2023-06-14T00:55:47;7.30;;;6.63;;
15899;SDS011;8048;50.644;6.184;2023-06-14T00:58:13;7.50;;;6.33;;
15899;SDS011;8048;50.644;6.184;2023-06-14T01:00:39;7.10;;;5.93;;
15899;SDS011;8048;50.644;6.184;2023-06-14T01:03:05;7.43;;;6.73;;
15899;SDS011;8048;50.644;6.184;2023-06-14T01:05:31;7.70;;;7.10;;
15899;SDS011;8048;50.644;6.184;2023-06-14T01:10:51;6.13;;;5.10;;
15899;SDS011;8048;50.644;6.184;2023-06-14T01:13:32;6.60;;;6.00;;
15899;SDS011;8048;50.644;6.184;2023-06-14T01:16:00;6.60;;;6.00;;
15899;SDS011;8048;50.644;6.184;2023-06-14T01:18:28;8.60;;;6.23;;
15899;SDS011;8048;50.644;6.184;2023-06-14T01:20:54;6.63;;;6.10;;
15899;SDS011;8048;50.644;6.184;2023-06-14T01:23:21;5.80;;;5.40;;
15899;SDS011;8048;50.644;6.184;2023-06-14T01:25:47;6.47;;;5.87;;
15899;SDS011;8048;50.644;6.184;2023-06-14T01:28:17;5.57;;;5.17;;
15899;SDS011;8048;50.644;6.184;2023-06-14T01:30:46;5.43;;;5.03;;
15899;SDS011;8048;50.644;6.184;2023-06-14T01:33:20;5.90;;;5.50;;
15899;SDS011;8048;50.644;6.184;2023-06-14T01:35:48;6.87;;;6.33;;
15899;SDS011;8048;50.644;6.184;2023-06-14T01:38:15;6.07;;;5.57;;
15899;SDS011;8048;50.644;6.184;2023-06-14T01:40:43;5.40;;;5.00;;
15899;SDS011;8048;50.644;6.184;2023-06-14T01:43:10;6.87;;;6.27;;
15899;SDS011;8048;50.644;6.184;2023-06-14T01:45:40;5.30;;;4.63;;
15899;SDS011;8048;50.644;6.184;2023-06-14T01:48:07;6.23;;;5.73;;
15899;SDS011;8048;50.644;6.184;2023-06-14T01:50:36;6.70;;;6.10;;
15899;SDS011;8048;50.644;6.184;2023-06-14T01:53:02;8.57;;;5.73;;
15899;SDS011;8048;50.644;6.184;2023-06-14T01:55:29;6.03;;;5.27;;
15899;SDS011;8048;50.644;6.184;2023-06-14T01:57:54;6.60;;;5.80;;
15899;SDS011;8048;50.644;6.184;2023-06-14T02:00:20;7.93;;;6.10;;
15899;SDS011;8048;50.644;6.184;2023-06-14T02:02:46;6.47;;;5.97;;
15899;SDS011;8048;50.644;6.184;2023-06-14T02:05:12;4.70;;;4.30;;
15899;SDS011;8048;50.644;6.184;2023-06-14T02:07:38;6.63;;;6.10;;
15899;SDS011;8048;50.644;6.184;2023-06-14T02:10:04;6.10;;;5.60;;
15899;SDS011;8048;50.644;6.184;2023-06-14T02:12:30;6.77;;;6.07;;
15899;SDS011;8048;50.644;6.184;2023-06-14T02:14:56;6.30;;;5.70;;
15899;SDS011;8048;50.644;6.184;2023-06-14T02:17:23;6.40;;;5.90;;
15899;SDS011;8048;50.644;6.184;2023-06-14T02:19:48;6.03;;;5.53;;
15899;SDS011;8048;50.644;6.184;2023-06-14T02:22:14;5.70;;;5.30;;
15899;SDS011;8048;50.644;6.184;2023-06-14T02:24:40;5.70;;;5.33;;
15899;SDS011;8048;50.644;6.184;2023-06-14T02:27:07;5.30;;;4.90;;
15899;SDS011;8048;50.644;6.184;2023-06-14T02:29:35;6.40;;;5.90;;
15899;SDS011;8048;50.644;6.184;2023-06-14T02:32:00;6.07;;;5.57;;
15899;SDS011;8048;50.644;6.184;2023-06-14T02:34:26;5.63;;;5.20;;
15899;SDS011;8048;50.644;6.184;2023-06-14T02:36:52;5.90;;;5.40;;
15899;SDS011;8048;50.644;6.184;2023-06-14T02:39:17;6.07;;;5.67;;
15899;SDS011;8048;50.644;6.184;2023-06-14T02:41:45;5.67;;;5.20;;
15899;SDS011;8048;50.644;6.184;2023-06-14T02:44:12;6.90;;;6.30;;
15899;SDS011;8048;50.644;6.184;2023-06-14T02:46:38;8.73;;;6.90;;
15899;SDS011;8048;50.644;6.184;2023-06-14T02:49:04;6.37;;;5.97;;
15899;SDS011;8048;50.644;6.184;2023-06-14T02:51:30;6.00;;;5.60;;
15899;SDS011;8048;50.644;6.184;2023-06-14T02:53:55;6.50;;;5.90;;
15899;SDS011;8048;50.644;6.184;2023-06-14T02:56:21;7.23;;;6.63;;
15899;SDS011;8048;50.644;6.184;2023-06-14T02:58:48;6.83;;;6.20;;
15899;SDS011;8048;50.644;6.184;2023-06-14T03:01:13;6.70;;;6.20;;
15899;SDS011;8048;50.644;6.184;2023-06-14T03:03:39;6.10;;;5.70;;
15899;SDS011;8048;50.644;6.184;2023-06-14T03:06:05;6.37;;;5.87;;
15899;SDS011;8048;50.644;6.184;2023-06-14T03:08:31;6.60;;;6.10;;
15899;SDS011;8048;50.644;6.184;2023-06-14T03:11:03;6.23;;;5.77;;
15899;SDS011;8048;50.644;6.184;2023-06-14T03:13:30;6.80;;;6.30;;
15899;SDS011;8048;50.644;6.184;2023-06-14T03:15:57;6.00;;;5.50;;
15899;SDS011;8048;50.644;6.184;2023-06-14T03:18:23;6.60;;;6.20;;
15899;SDS011;8048;50.644;6.184;2023-06-14T03:20:48;5.97;;;5.53;;
15899;SDS011;8048;50.644;6.184;2023-06-14T03:23:14;6.87;;;6.27;;
15899;SDS011;8048;50.644;6.184;2023-06-14T03:25:39;6.00;;;5.40;;
15899;SDS011;8048;50.644;6.184;2023-06-14T03:28:07;7.47;;;6.87;;
15899;SDS011;8048;50.644;6.184;2023-06-14T03:30:33;7.07;;;6.57;;
15899;SDS011;8048;50.644;6.184;2023-06-14T03:32:58;7.97;;;7.27;;
15899;SDS011;8048;50.644;6.184;2023-06-14T03:35:26;6.87;;;5.70;;
15899;SDS011;8048;50.644;6.184;2023-06-14T03:37:51;5.43;;;5.00;;
15899;SDS011;8048;50.644;6.184;2023-06-14T03:40:17;6.33;;;5.80;;
15899;SDS011;8048;50.644;6.184;2023-06-14T03:42:44;6.63;;;6.13;;
15899;SDS011;8048;50.644;6.184;2023-06-14T03:45:10;6.30;;;5.70;;
15899;SDS011;8048;50.644;6.184;2023-06-14T03:47:36;6.30;;;5.20;;
15899;SDS011;8048;50.644;6.184;2023-06-14T03:50:02;5.77;;;5.30;;
15899;SDS011;8048;50.644;6.184;2023-06-14T03:52:28;7.23;;;6.53;;
15899;SDS011;8048;50.644;6.184;2023-06-14T03:54:54;7.23;;;6.53;;
15899;SDS011;8048;50.644;6.184;2023-06-14T03:57:20;6.87;;;6.17;;
15899;SDS011;8048;50.644;6.184;2023-06-14T03:59:46;8.70;;;6.10;;
15899;SDS011;8048;50.644;6.184;2023-06-14T04:02:12;6.97;;;6.37;;
15899;SDS011;8048;50.644;6.184;2023-06-14T04:04:41;6.40;;;5.80;;
15899;SDS011;8048;50.644;6.184;2023-06-14T04:07:09;6.40;;;5.90;;
15899;SDS011;8048;50.644;6.184;2023-06-14T04:09:37;7.67;;;7.07;;
15899;SDS011;8048;50.644;6.184;2023-06-14T04:12:04;6.87;;;6.37;;
15899;SDS011;8048;50.644;6.184;2023-06-14T04:14:31;5.87;;;5.37;;
15899;SDS011;8048;50.644;6.184;2023-06-14T04:16:57;6.40;;;5.73;;
15899;SDS011;8048;50.644;6.184;2023-06-14T04:19:23;6.93;;;6.43;;
15899;SDS011;8048;50.644;6.184;2023-06-14T04:21:49;5.93;;;5.50;;
15899;SDS011;8048;50.644;6.184;2023-06-14T04:24:15;6.40;;;5.90;;
15899;SDS011;8048;50.644;6.184;2023-06-14T04:26:41;7.03;;;6.23;;
15899;SDS011;8048;50.644;6.184;2023-06-14T04:29:09;5.67;;;5.20;;
15899;SDS011;8048;50.644;6.184;2023-06-14T04:31:39;6.20;;;5.47;;
15899;SDS011;8048;50.644;6.184;2023-06-14T04:34:05;5.83;;;5.40;;
15899;SDS011;8048;50.644;6.184;2023-06-14T04:36:30;7.00;;;6.30;;
15899;SDS011;8048;50.644;6.184;2023-06-14T04:38:59;12.07;;;6.30;;
15899;SDS011;8048;50.644;6.184;2023-06-14T04:41:29;5.47;;;4.97;;
15899;SDS011;8048;50.644;6.184;2023-06-14T04:43:56;5.03;;;4.60;;
15899;SDS011;8048;50.644;6.184;2023-06-14T04:46:23;6.73;;;5.77;;
15899;SDS011;8048;50.644;6.184;2023-06-14T04:48:49;5.20;;;4.67;;
15899;SDS011;8048;50.644;6.184;2023-06-14T04:51:15;4.77;;;4.27;;
15899;SDS011;8048;50.644;6.184;2023-06-14T04:53:41;5.17;;;4.77;;
15899;SDS011;8048;50.644;6.184;2023-06-14T04:56:08;5.33;;;4.93;;
15899;SDS011;8048;50.644;6.184;2023-06-14T04:58:34;5.20;;;4.77;;
15899;SDS011;8048;50.644;6.184;2023-06-14T05:01:00;6.57;;;5.10;;
15899;SDS011;8048;50.644;6.184;2023-06-14T05:03:26;5.80;;;5.30;;
15899;SDS011;8048;50.644;6.184;2023-06-14T05:05:52;6.40;;;5.80;;
15899;SDS011;8048;50.644;6.184;2023-06-14T05:08:18;5.23;;;4.83;;
15899;SDS011;8048;50.644;6.184;2023-06-14T05:10:45;6.50;;;6.00;;
15899;SDS011;8048;50.644;6.184;2023-06-14T05:13:10;6.20;;;5.60;;
15899;SDS011;8048;50.644;6.184;2023-06-14T05:15:36;5.37;;;4.97;;
15899;SDS011;8048;50.644;6.184;2023-06-14T05:18:02;7.53;;;5.20;;
15899;SDS011;8048;50.644;6.184;2023-06-14T05:20:27;6.00;;;5.40;;
15899;SDS011;8048;50.644;6.184;2023-06-14T05:22:53;6.23;;;5.63;;
15899;SDS011;8048;50.644;6.184;2023-06-14T05:25:19;5.70;;;5.20;;
15899;SDS011;8048;50.644;6.184;2023-06-14T05:27:46;5.00;;;4.70;;
15899;SDS011;8048;50.644;6.184;2023-06-14T05:30:12;6.03;;;5.40;;
15899;SDS011;8048;50.644;6.184;2023-06-14T05:32:39;5.57;;;5.17;;
15899;SDS011;8048;50.644;6.184;2023-06-14T05:35:04;5.17;;;4.73;;
15899;SDS011;8048;50.644;6.184;2023-06-14T05:37:31;5.00;;;4.60;;
15899;SDS011;8048;50.644;6.184;2023-06-14T05:39:56;5.07;;;4.67;;
15899;SDS011;8048;50.644;6.184;2023-06-14T05:42:22;6.03;;;5.53;;
15899;SDS011;8048;50.644;6.184;2023-06-14T05:44:47;5.00;;;4.60;;
15899;SDS011;8048;50.644;6.184;2023-06-14T05:47:13;5.13;;;4.60;;
15899;SDS011;8048;50.644;6.184;2023-06-14T05:49:39;6.23;;;5.73;;
15899;SDS011;8048;50.644;6.184;2023-06-14T05:52:04;6.13;;;5.63;;
15899;SDS011;8048;50.644;6.184;2023-06-14T05:54:30;5.07;;;4.67;;
15899;SDS011;8048;50.644;6.184;2023-06-14T05:56:56;5.70;;;5.30;;
15899;SDS011;8048;50.644;6.184;2023-06-14T05:59:26;5.87;;;5.37;;
15899;SDS011;8048;50.644;6.184;2023-06-14T06:01:54;5.00;;;4.70;;
15899;SDS011;8048;50.644;6.184;2023-06-14T06:04:20;5.23;;;4.77;;
15899;SDS011;8048;50.644;6.184;2023-06-14T06:06:46;5.30;;;4.90;;
15899;SDS011;8048;50.644;6.184;2023-06-14T06:09:12;4.93;;;4.63;;
15899;SDS011;8048;50.644;6.184;2023-06-14T06:11:39;8.03;;;4.60;;
15899;SDS011;8048;50.644;6.184;2023-06-14T06:14:05;5.10;;;4.43;;
15899;SDS011;8048;50.644;6.184;2023-06-14T06:16:31;4.70;;;4.40;;
15899;SDS011;8048;50.644;6.184;2023-06-14T06:18:56;5.93;;;5.33;;
15899;SDS011;8048;50.644;6.184;2023-06-14T06:21:22;5.80;;;5.37;;
15899;SDS011;8048;50.644;6.184;2023-06-14T06:23:47;7.13;;;5.53;;
15899;SDS011;8048;50.644;6.184;2023-06-14T06:26:13;5.13;;;4.80;;
15899;SDS011;8048;50.644;6.184;2023-06-14T06:28:38;8.43;;;5.00;;
15899;SDS011;8048;50.644;6.184;2023-06-14T06:31:04;5.67;;;4.80;;
15899;SDS011;8048;50.644;6.184;2023-06-14T06:33:30;6.50;;;4.60;;
15899;SDS011;8048;50.644;6.184;2023-06-14T06:35:55;5.03;;;4.53;;
15899;SDS011;8048;50.644;6.184;2023-06-14T06:38:21;4.87;;;4.57;;
15899;SDS011;8048;50.644;6.184;2023-06-14T06:40:46;6.63;;;5.83;;
15899;SDS011;8048;50.644;6.184;2023-06-14T06:43:12;5.07;;;4.67;;
15899;SDS011;8048;50.644;6.184;2023-06-14T06:45:42;4.60;;;4.30;;
15899;SDS011;8048;50.644;6.184;2023-06-14T06:48:08;4.93;;;4.63;;
15899;SDS011;8048;50.644;6.184;2023-06-14T06:50:36;4.50;;;4.20;;
15899;SDS011;8048;50.644;6.184;2023-06-14T06:53:02;5.07;;;4.70;;
15899;SDS011;8048;50.644;6.184;2023-06-14T06:55:27;4.93;;;4.53;;
15899;SDS011;8048;50.644;6.184;2023-06-14T06:57:53;5.70;;;5.20;;
15899;SDS011;8048;50.644;6.184;2023-06-14T07:00:19;6.30;;;5.70;;
15899;SDS011;8048;50.644;6.184;2023-06-14T07:02:45;4.60;;;4.30;;
15899;SDS011;8048;50.644;6.184;2023-06-14T07:05:11;4.20;;;3.87;;
15899;SDS011;8048;50.644;6.184;2023-06-14T07:07:36;9.67;;;5.57;;
15899;SDS011;8048;50.644;6.184;2023-06-14T07:10:02;5.33;;;4.97;;
15899;SDS011;8048;50.644;6.184;2023-06-14T07:12:29;4.97;;;4.53;;
15899;SDS011;8048;50.644;6.184;2023-06-14T07:14:59;5.13;;;4.73;;
15899;SDS011;8048;50.644;6.184;2023-06-14T07:17:25;6.13;;;5.67;;
15899;SDS011;8048;50.644;6.184;2023-06-14T07:19:51;5.90;;;5.50;;
15899;SDS011;8048;50.644;6.184;2023-06-14T07:22:16;6.20;;;5.70;;
15899;SDS011;8048;50.644;6.184;2023-06-14T07:24:42;6.20;;;5.70;;
15899;SDS011;8048;50.644;6.184;2023-06-14T07:27:08;5.63;;;5.23;;
15899;SDS011;8048;50.644;6.184;2023-06-14T07:29:34;5.00;;;4.60;;
15899;SDS011;8048;50.644;6.184;2023-06-14T07:31:59;4.03;;;3.73;;
15899;SDS011;8048;50.644;6.184;2023-06-14T07:34:25;5.43;;;5.00;;
15899;SDS011;8048;50.644;6.184;2023-06-14T07:36:51;7.10;;;5.63;;
15899;SDS011;8048;50.644;6.184;2023-06-14T07:39:16;5.80;;;5.40;;
15899;SDS011;8048;50.644;6.184;2023-06-14T07:41:42;5.13;;;4.73;;
15899;SDS011;8048;50.644;6.184;2023-06-14T07:44:07;5.10;;;4.70;;
15899;SDS011;8048;50.644;6.184;2023-06-14T07:46:33;8.63;;;4.50;;
15899;SDS011;8048;50.644;6.184;2023-06-14T07:48:59;5.10;;;4.80;;
15899;SDS011;8048;50.644;6.184;2023-06-14T07:51:25;5.10;;;4.70;;
15899;SDS011;8048;50.644;6.184;2023-06-14T07:53:50;4.83;;;4.37;;
15899;SDS011;8048;50.644;6.184;2023-06-14T07:56:16;4.70;;;4.40;;
15899;SDS011;8048;50.644;6.184;2023-06-14T07:58:41;4.40;;;4.10;;
15899;SDS011;8048;50.644;6.184;2023-06-14T08:01:08;6.00;;;5.50;;
15899;SDS011;8048;50.644;6.184;2023-06-14T08:03:33;6.03;;;4.63;;
15899;SDS011;8048;50.644;6.184;2023-06-14T08:05:59;4.70;;;4.40;;
15899;SDS011;8048;50.644;6.184;2023-06-14T08:08:25;5.77;;;5.23;;
15899;SDS011;8048;50.644;6.184;2023-06-14T08:10:51;5.53;;;5.17;;
15899;SDS011;8048;50.644;6.184;2023-06-14T08:13:17;5.43;;;4.93;;
15899;SDS011;8048;50.644;6.184;2023-06-14T08:15:42;5.30;;;4.80;;
15899;SDS011;8048;50.644;6.184;2023-06-14T08:18:08;4.73;;;4.37;;
15899;SDS011;8048;50.644;6.184;2023-06-14T08:20:34;5.73;;;5.33;;
15899;SDS011;8048;50.644;6.184;2023-06-14T08:23:00;10.20;;;5.63;;
15899;SDS011;8048;50.644;6.184;2023-06-14T08:25:27;6.20;;;4.70;;
15899;SDS011;8048;50.644;6.184;2023-06-14T08:27:52;13.40;;;4.57;;
15899;SDS011;8048;50.644;6.184;2023-06-14T08:30:18;5.40;;;4.90;;
15899;SDS011;8048;50.644;6.184;2023-06-14T08:32:44;4.83;;;4.53;;
15899;SDS011;8048;50.644;6.184;2023-06-14T08:35:09;6.43;;;5.93;;
15899;SDS011;8048;50.644;6.184;2023-06-14T08:37:38;5.23;;;4.93;;
15899;SDS011;8048;50.644;6.184;2023-06-14T08:40:06;5.03;;;4.30;;
15899;SDS011;8048;50.644;6.184;2023-06-14T08:42:43;6.07;;;5.40;;
15899;SDS011;8048;50.644;6.184;2023-06-14T08:45:10;6.17;;;5.50;;
15899;SDS011;8048;50.644;6.184;2023-06-14T08:47:36;5.10;;;4.70;;
15899;SDS011;8048;50.644;6.184;2023-06-14T08:50:01;6.40;;;5.80;;
15899;SDS011;8048;50.644;6.184;2023-06-14T08:52:29;4.87;;;4.47;;
15899;SDS011;8048;50.644;6.184;2023-06-14T08:54:58;5.73;;;5.23;;
15899;SDS011;8048;50.644;6.184;2023-06-14T08:57:25;4.80;;;4.40;;
15899;SDS011;8048;50.644;6.184;2023-06-14T08:59:55;4.83;;;4.53;;
15899;SDS011;8048;50.644;6.184;2023-06-14T09:02:22;4.53;;;4.13;;
15899;SDS011;8048;50.644;6.184;2023-06-14T09:04:47;4.43;;;4.13;;
15899;SDS011;8048;50.644;6.184;2023-06-14T09:07:14;5.10;;;4.70;;
15899;SDS011;8048;50.644;6.184;2023-06-14T09:09:40;4.70;;;4.23;;
15899;SDS011;8048;50.644;6.184;2023-06-14T09:12:10;4.53;;;4.23;;
15899;SDS011;8048;50.644;6.184;2023-06-14T09:14:37;4.23;;;3.93;;
15899;SDS011;8048;50.644;6.184;2023-06-14T09:17:04;3.97;;;3.67;;
15899;SDS011;8048;50.644;6.184;2023-06-14T09:19:30;4.57;;;4.20;;
15899;SDS011;8048;50.644;6.184;2023-06-14T09:21:56;6.03;;;4.20;;
15899;SDS011;8048;50.644;6.184;2023-06-14T09:24:23;4.17;;;3.87;;
15899;SDS011;8048;50.644;6.184;2023-06-14T09:26:50;6.50;;;4.30;;
15899;SDS011;8048;50.644;6.184;2023-06-14T09:29:16;6.80;;;4.57;;
15899;SDS011;8048;50.644;6.184;2023-06-14T09:31:42;5.00;;;4.20;;
15899;SDS011;8048;50.644;6.184;2023-06-14T09:34:10;4.60;;;4.20;;
15899;SDS011;8048;50.644;6.184;2023-06-14T09:36:36;4.40;;;4.00;;
15899;SDS011;8048;50.644;6.184;2023-06-14T09:39:04;4.10;;;3.70;;
15899;SDS011;8048;50.644;6.184;2023-06-14T09:41:31;5.20;;;4.80;;
15899;SDS011;8048;50.644;6.184;2023-06-14T09:44:00;5.50;;;3.77;;
15899;SDS011;8048;50.644;6.184;2023-06-14T09:46:28;4.70;;;4.30;;
15899;SDS011;8048;50.644;6.184;2023-06-14T09:48:57;4.07;;;3.80;;
15899;SDS011;8048;50.644;6.184;2023-06-14T09:51:23;4.37;;;4.07;;
15899;SDS011;8048;50.644;6.184;2023-06-14T09:53:50;5.53;;;3.60;;
15899;SDS011;8048;50.644;6.184;2023-06-14T09:56:22;4.40;;;4.10;;
15899;SDS011;8048;50.644;6.184;2023-06-14T09:58:57;4.57;;;4.17;;
15899;SDS011;8048;50.644;6.184;2023-06-14T10:01:26;3.90;;;3.60;;
15899;SDS011;8048;50.644;6.184;2023-06-14T10:04:05;3.77;;;3.53;;
15899;SDS011;8048;50.644;6.184;2023-06-14T10:06:31;4.00;;;3.70;;
15899;SDS011;8048;50.644;6.184;2023-06-14T10:09:02;4.20;;;3.90;;
15899;SDS011;8048;50.644;6.184;2023-06-14T10:11:30;4.47;;;4.17;;
15899;SDS011;8048;50.644;6.184;2023-06-14T10:13:56;3.97;;;3.67;;
15899;SDS011;8048;50.644;6.184;2023-06-14T10:16:27;3.53;;;3.30;;
15899;SDS011;8048;50.644;6.184;2023-06-14T10:19:13;3.40;;;3.20;;
15899;SDS011;8048;50.644;6.184;2023-06-14T10:24:31;8.03;;;3.80;;
15899;SDS011;8048;50.644;6.184;2023-06-14T10:26:58;4.17;;;3.87;;
15899;SDS011;8048;50.644;6.184;2023-06-14T10:29:27;3.23;;;3.10;;
15899;SDS011;8048;50.644;6.184;2023-06-14T10:31:57;3.30;;;3.10;;
15899;SDS011;8048;50.644;6.184;2023-06-14T10:34:25;5.73;;;3.20;;
15899;SDS011;8048;50.644;6.184;2023-06-14T10:37:04;3.70;;;3.23;;
15899;SDS011;8048;50.644;6.184;2023-06-14T10:39:30;3.77;;;3.47;;
15899;SDS011;8048;50.644;6.184;2023-06-14T10:41:57;4.40;;;4.03;;
15899;SDS011;8048;50.644;6.184;2023-06-14T10:46:55;4.60;;;3.37;;
15899;SDS011;8048;50.644;6.184;2023-06-14T10:49:43;4.23;;;3.93;;
15899;SDS011;8048;50.644;6.184;2023-06-14T10:52:11;4.73;;;4.40;;
15899;SDS011;8048;50.644;6.184;2023-06-14T10:57:30;3.40;;;3.30;;
15899;SDS011;8048;50.644;6.184;2023-06-14T11:00:07;4.67;;;4.27;;
15899;SDS011;8048;50.644;6.184;2023-06-14T11:05:18;3.90;;;3.60;;
15899;SDS011;8048;50.644;6.184;2023-06-14T11:07:55;3.77;;;3.57;;
15899;SDS011;8048;50.644;6.184;2023-06-14T11:10:36;3.80;;;3.60;;
15899;SDS011;8048;50.644;6.184;2023-06-14T11:13:03;3.83;;;3.53;;
15899;SDS011;8048;50.644;6.184;2023-06-14T11:15:29;4.53;;;4.23;;
15899;SDS011;8048;50.644;6.184;2023-06-14T11:17:56;3.70;;;3.40;;
15899;SDS011;8048;50.644;6.184;2023-06-14T11:20:24;4.30;;;4.00;;
15899;SDS011;8048;50.644;6.184;2023-06-14T11:22:51;4.07;;;3.87;;
15899;SDS011;8048;50.644;6.184;2023-06-14T11:25:17;4.20;;;3.90;;
15899;SDS011;8048;50.644;6.184;2023-06-14T11:27:43;5.33;;;3.67;;
15899;SDS011;8048;50.644;6.184;2023-06-14T11:30:09;3.67;;;3.47;;
15899;SDS011;8048;50.644;6.184;2023-06-14T11:32:36;4.13;;;3.83;;
15899;SDS011;8048;50.644;6.184;2023-06-14T11:35:05;3.27;;;3.07;;
15899;SDS011;8048;50.644;6.184;2023-06-14T11:37:31;3.80;;;3.60;;
15899;SDS011;8048;50.644;6.184;2023-06-14T11:40:00;3.73;;;3.50;;
15899;SDS011;8048;50.644;6.184;2023-06-14T11:42:27;4.37;;;3.40;;
15899;SDS011;8048;50.644;6.184;2023-06-14T11:44:53;3.10;;;2.90;;
15899;SDS011;8048;50.644;6.184;2023-06-14T11:47:20;3.20;;;3.00;;
15899;SDS011;8048;50.644;6.184;2023-06-14T11:49:46;2.77;;;2.67;;
15899;SDS011;8048;50.644;6.184;2023-06-14T11:52:12;3.17;;;2.97;;
15899;SDS011;8048;50.644;6.184;2023-06-14T11:54:38;3.43;;;3.23;;
15899;SDS011;8048;50.644;6.184;2023-06-14T11:57:05;3.77;;;3.10;;
15899;SDS011;8048;50.644;6.184;2023-06-14T11:59:37;2.93;;;2.83;;
15899;SDS011;8048;50.644;6.184;2023-06-14T12:02:03;2.87;;;2.73;;
15899;SDS011;8048;50.644;6.184;2023-06-14T12:04:29;3.30;;;3.10;;
15899;SDS011;8048;50.644;6.184;2023-06-14T12:06:55;3.30;;;3.10;;
15899;SDS011;8048;50.644;6.184;2023-06-14T12:09:22;3.03;;;2.83;;
15899;SDS011;8048;50.644;6.184;2023-06-14T12:11:49;3.80;;;3.00;;
15899;SDS011;8048;50.644;6.184;2023-06-14T12:14:15;2.80;;;2.70;;
15899;SDS011;8048;50.644;6.184;2023-06-14T12:16:41;3.03;;;2.83;;
15899;SDS011;8048;50.644;6.184;2023-06-14T12:19:08;3.07;;;2.87;;
15899;SDS011;8048;50.644;6.184;2023-06-14T12:21:38;3.93;;;3.73;;
15899;SDS011;8048;50.644;6.184;2023-06-14T12:24:07;3.40;;;3.20;;
15899;SDS011;8048;50.644;6.184;2023-06-14T12:26:33;3.27;;;3.07;;
15899;SDS011;8048;50.644;6.184;2023-06-14T12:29:04;2.50;;;2.40;;
15899;SDS011;8048;50.644;6.184;2023-06-14T12:31:31;3.50;;;3.30;;
15899;SDS011;8048;50.644;6.184;2023-06-14T12:33:56;3.70;;;3.27;;
15899;SDS011;8048;50.644;6.184;2023-06-14T12:36:22;2.90;;;2.80;;
15899;SDS011;8048;50.644;6.184;2023-06-14T12:38:47;3.37;;;3.17;;
15899;SDS011;8048;50.644;6.184;2023-06-14T12:41:13;3.07;;;2.87;;
15899;SDS011;8048;50.644;6.184;2023-06-14T12:43:39;3.53;;;3.30;;
15899;SDS011;8048;50.644;6.184;2023-06-14T12:46:05;2.83;;;2.73;;
15899;SDS011;8048;50.644;6.184;2023-06-14T12:48:31;3.93;;;3.53;;
15899;SDS011;8048;50.644;6.184;2023-06-14T12:50:57;3.40;;;3.10;;
15899;SDS011;8048;50.644;6.184;2023-06-14T12:53:23;3.90;;;3.60;;
15899;SDS011;8048;50.644;6.184;2023-06-14T12:55:49;4.03;;;2.97;;
15899;SDS011;8048;50.644;6.184;2023-06-14T12:58:14;4.03;;;3.70;;
15899;SDS011;8048;50.644;6.184;2023-06-14T13:00:42;3.50;;;3.30;;
15899;SDS011;8048;50.644;6.184;2023-06-14T13:03:08;3.70;;;3.47;;
15899;SDS011;8048;50.644;6.184;2023-06-14T13:05:34;3.83;;;3.20;;
15899;SDS011;8048;50.644;6.184;2023-06-14T13:08:00;3.53;;;3.23;;
15899;SDS011;8048;50.644;6.184;2023-06-14T13:10:25;2.90;;;2.80;;
15899;SDS011;8048;50.644;6.184;2023-06-14T13:12:52;4.07;;;3.77;;
15899;SDS011;8048;50.644;6.184;2023-06-14T13:15:17;4.10;;;3.70;;
15899;SDS011;8048;50.644;6.184;2023-06-14T13:17:43;3.07;;;2.87;;
15899;SDS011;8048;50.644;6.184;2023-06-14T13:20:13;5.90;;;3.60;;
15899;SDS011;8048;50.644;6.184;2023-06-14T13:22:38;3.70;;;3.50;;
15899;SDS011;8048;50.644;6.184;2023-06-14T13:25:04;3.60;;;3.40;;
15899;SDS011;8048;50.644;6.184;2023-06-14T13:27:31;5.50;;;3.33;;
15899;SDS011;8048;50.644;6.184;2023-06-14T13:29:56;3.57;;;3.37;;
15899;SDS011;8048;50.644;6.184;2023-06-14T13:32:22;2.93;;;2.73;;
15899;SDS011;8048;50.644;6.184;2023-06-14T13:34:48;3.33;;;3.13;;
15899;SDS011;8048;50.644;6.184;2023-06-14T13:37:13;3.70;;;3.50;;
15899;SDS011;8048;50.644;6.184;2023-06-14T13:39:39;3.20;;;3.00;;
15899;SDS011;8048;50.644;6.184;2023-06-14T13:42:05;3.50;;;3.30;;
15899;SDS011;8048;50.644;6.184;2023-06-14T13:44:30;3.57;;;3.37;;
15899;SDS011;8048;50.644;6.184;2023-06-14T13:46:56;3.13;;;2.93;;
15899;SDS011;8048;50.644;6.184;2023-06-14T13:49:21;4.80;;;3.23;;
15899;SDS011;8048;50.644;6.184;2023-06-14T13:51:47;3.30;;;3.00;;
15899;SDS011;8048;50.644;6.184;2023-06-14T13:54:13;3.10;;;2.90;;
15899;SDS011;8048;50.644;6.184;2023-06-14T13:56:40;3.00;;;2.90;;
15899;SDS011;8048;50.644;6.184;2023-06-14T13:59:06;2.67;;;2.57;;
15899;SDS011;8048;50.644;6.184;2023-06-14T14:01:31;3.27;;;3.07;;
15899;SDS011;8048;50.644;6.184;2023-06-14T14:03:57;3.10;;;2.90;;
15899;SDS011;8048;50.644;6.184;2023-06-14T14:06:23;3.40;;;3.10;;
15899;SDS011;8048;50.644;6.184;2023-06-14T14:08:49;3.37;;;3.07;;
15899;SDS011;8048;50.644;6.184;2023-06-14T14:11:14;4.40;;;3.80;;
15899;SDS011;8048;50.644;6.184;2023-06-14T14:13:41;5.10;;;3.07;;
15899;SDS011;8048;50.644;6.184;2023-06-14T14:16:07;3.70;;;3.40;;
15899;SDS011;8048;50.644;6.184;2023-06-14T14:18:33;3.03;;;2.93;;
15899;SDS011;8048;50.644;6.184;2023-06-14T14:20:58;3.70;;;3.40;;
15899;SDS011;8048;50.644;6.184;2023-06-14T14:23:25;3.77;;;3.20;;
15899;SDS011;8048;50.644;6.184;2023-06-14T14:25:51;3.20;;;3.00;;
15899;SDS011;8048;50.644;6.184;2023-06-14T14:28:16;3.40;;;3.20;;
15899;SDS011;8048;50.644;6.184;2023-06-14T14:30:44;3.13;;;2.93;;
15899;SDS011;8048;50.644;6.184;2023-06-14T14:33:10;3.40;;;3.30;;
15899;SDS011;8048;50.644;6.184;2023-06-14T14:35:40;3.07;;;2.90;;
15899;SDS011;8048;50.644;6.184;2023-06-14T14:38:15;3.93;;;3.63;;
15899;SDS011;8048;50.644;6.184;2023-06-14T14:40:41;4.10;;;3.80;;
15899;SDS011;8048;50.644;6.184;2023-06-14T14:43:08;2.97;;;2.80;;
15899;SDS011;8048;50.644;6.184;2023-06-14T14:45:34;4.43;;;3.70;;
15899;SDS011;8048;50.644;6.184;2023-06-14T14:48:00;3.50;;;3.30;;
15899;SDS011;8048;50.644;6.184;2023-06-14T14:50:27;3.70;;;3.50;;
15899;SDS011;8048;50.644;6.184;2023-06-14T14:52:52;3.67;;;3.47;;
15899;SDS011;8048;50.644;6.184;2023-06-14T14:55:18;4.07;;;3.50;;
15899;SDS011;8048;50.644;6.184;2023-06-14T14:57:45;3.47;;;3.27;;
15899;SDS011;8048;50.644;6.184;2023-06-14T15:00:11;3.40;;;3.20;;
15899;SDS011;8048;50.644;6.184;2023-06-14T15:02:36;4.20;;;3.77;;
15899;SDS011;8048;50.644;6.184;2023-06-14T15:05:02;3.40;;;3.10;;
15899;SDS011;8048;50.644;6.184;2023-06-14T15:07:28;3.70;;;3.50;;
15899;SDS011;8048;50.644;6.184;2023-06-14T15:09:55;3.50;;;3.30;;
15899;SDS011;8048;50.644;6.184;2023-06-14T15:12:20;3.10;;;3.00;;